createdAt,value
2023-03-01T00:01:04.270Z,97098.97
2023-03-01T00:03:35.199Z,97102.41
2023-03-01T00:06:05.869Z,97052.31
2023-03-01T00:08:36.990Z,97104.81
2023-03-01T00:11:19.394Z,97103.81
2023-03-01T00:13:50.078Z,97100.78
2023-03-01T00:16:20.473Z,97102.19
2023-03-01T00:18:51.675Z,97096.16
2023-03-01T00:21:25.713Z,97146.25
2023-03-01T00:23:55.012Z,97104.19
2023-03-01T00:26:26.306Z,97069.19
2023-03-01T00:28:57.753Z,97104.81
2023-03-01T00:31:30.184Z,97114.06
2023-03-01T00:33:59.391Z,97085.44
2023-03-01T00:36:30.703Z,97043.13
2023-03-01T00:39:15.948Z,97102.72
2023-03-01T00:41:46.825Z,97115.59
2023-03-01T00:44:20.212Z,97110.09
2023-03-01T00:46:51.207Z,97109.03
2023-03-01T00:49:21.929Z,97139.69
2023-03-01T00:52:00.913Z,97005.66
2023-03-01T00:54:30.935Z,97068.63
2023-03-01T00:57:00.864Z,97102.13
2023-03-01T00:59:30.143Z,97108.09
2023-03-01T01:02:00.170Z,97008.13
2023-03-01T01:04:28.090Z,97106.59
2023-03-01T01:06:55.962Z,97046.31
2023-03-01T01:09:26.327Z,97101.22
2023-03-01T01:11:54.185Z,97101.41
2023-03-01T01:14:21.996Z,97024.38
2023-03-01T01:16:51.176Z,97091.50
2023-03-01T01:19:19.037Z,97090.53
2023-03-01T01:21:47.168Z,97086.19
2023-03-01T01:24:17.098Z,97089.44
2023-03-01T01:26:55.137Z,97079.75
2023-03-01T01:29:23.507Z,97053.09
2023-03-01T01:31:55.959Z,97085.09
2023-03-01T01:34:24.457Z,97024.56
2023-03-01T01:36:54.995Z,97081.06
2023-03-01T01:39:33.374Z,96941.63
2023-03-01T01:42:02.011Z,97069.44
2023-03-01T01:44:31.151Z,97072.47
2023-03-01T01:47:02.726Z,97068.53
2023-03-01T01:49:43.311Z,97070.22
2023-03-01T01:52:19.413Z,97067.81
2023-03-01T01:54:52.909Z,97031.44
2023-03-01T01:57:23.282Z,97067.00
2023-03-01T01:59:56.305Z,97055.06
2023-03-01T02:02:31.351Z,97065.78
2023-03-01T02:05:13.156Z,97052.81
2023-03-01T02:07:41.692Z,97061.16
2023-03-01T02:10:10.848Z,97030.41
2023-03-01T02:12:42.660Z,96800.81
2023-03-01T02:15:13.164Z,97052.78
2023-03-01T02:17:43.696Z,96947.47
2023-03-01T02:20:21.561Z,97006.84
2023-03-01T02:22:54.909Z,97014.03
2023-03-01T02:25:30.087Z,97041.00
2023-03-01T02:28:02.214Z,97032.47
2023-03-01T02:30:32.524Z,96803.22
2023-03-01T02:33:03.683Z,97028.59
2023-03-01T02:35:37.132Z,97022.97
2023-03-01T02:38:11.368Z,97023.50
2023-03-01T02:40:41.503Z,96919.78
2023-03-01T02:43:11.329Z,96936.25
2023-03-01T02:45:45.640Z,97011.06
2023-03-01T02:48:15.315Z,97003.19
2023-03-01T02:51:01.266Z,96999.00
2023-03-01T02:53:40.188Z,96995.19
2023-03-01T02:56:15.216Z,96998.56
2023-03-01T02:58:50.148Z,96998.56
2023-03-01T03:01:21.312Z,96989.72
2023-03-01T03:03:50.625Z,96995.38
2023-03-01T03:06:20.716Z,96991.56
2023-03-01T03:08:50.882Z,96987.72
2023-03-01T03:11:37.931Z,96990.53
2023-03-01T03:14:15.286Z,96988.72
2023-03-01T03:16:47.078Z,96935.41
2023-03-01T03:19:17.110Z,96964.34
2023-03-01T03:21:45.401Z,96972.81
2023-03-01T03:24:15.518Z,96976.69
2023-03-01T03:26:43.979Z,96982.50
2023-03-01T03:29:14.237Z,96934.63
2023-03-01T03:31:42.464Z,96927.41
2023-03-01T03:34:18.508Z,96965.22
2023-03-01T03:36:52.560Z,96958.59
2023-03-01T03:39:23.589Z,96976.06
2023-03-01T03:41:51.717Z,96976.47
2023-03-01T03:44:24.817Z,96958.97
2023-03-01T03:47:03.372Z,96971.25
2023-03-01T03:49:35.745Z,96970.44
2023-03-01T03:52:06.022Z,96967.22
2023-03-01T03:54:33.951Z,96969.25
2023-03-01T03:57:05.586Z,96971.66
2023-03-01T03:59:36.285Z,96970.03
2023-03-01T04:02:10.244Z,96959.19
2023-03-01T04:04:44.707Z,96959.19
2023-03-01T04:07:12.481Z,96964.00
2023-03-01T04:09:40.341Z,96955.56
2023-03-01T04:12:13.426Z,96948.94
2023-03-01T04:14:41.267Z,96945.13
2023-03-01T04:17:11.599Z,96945.53
2023-03-01T04:19:40.904Z,96932.66
2023-03-01T04:22:10.356Z,96949.94
2023-03-01T04:24:38.288Z,96949.94
2023-03-01T04:27:10.771Z,96946.13
2023-03-01T04:29:38.683Z,96887.59
2023-03-01T04:32:14.489Z,96935.03
2023-03-01T04:34:45.320Z,96943.25
2023-03-01T04:37:13.184Z,96932.25
2023-03-01T04:39:46.635Z,96924.78
2023-03-01T04:42:15.013Z,96942.09
2023-03-01T04:44:42.841Z,96924.22
2023-03-01T04:47:10.991Z,96946.13
2023-03-01T04:49:39.403Z,96896.25
2023-03-01T04:52:11.812Z,96944.31
2023-03-01T04:54:42.322Z,96943.91
2023-03-01T04:57:16.006Z,96946.31
2023-03-01T04:59:46.451Z,96942.69
2023-03-01T05:02:17.299Z,96950.09
2023-03-01T05:04:47.506Z,96945.28
2023-03-01T05:07:20.449Z,96949.28
2023-03-01T05:09:48.724Z,96948.22
2023-03-01T05:12:16.954Z,96952.31
2023-03-01T05:14:49.424Z,96950.22
2023-03-01T05:17:20.107Z,96897.78
2023-03-01T05:19:48.346Z,96954.75
2023-03-01T05:22:21.404Z,96894.06
2023-03-01T05:24:49.667Z,96949.38
2023-03-01T05:27:17.816Z,96791.31
2023-03-01T05:29:45.808Z,96899.22
2023-03-01T05:32:16.887Z,96946.97
2023-03-01T05:34:45.130Z,96949.00
2023-03-01T05:37:16.817Z,96940.34
2023-03-01T05:39:51.329Z,96947.34
2023-03-01T05:42:19.495Z,96936.84
2023-03-01T05:44:52.782Z,96961.06
2023-03-01T05:47:22.234Z,96943.00
2023-03-01T05:49:54.497Z,96953.22
2023-03-01T05:52:22.471Z,96940.25
2023-03-01T05:54:55.997Z,96952.34
2023-03-01T05:57:24.291Z,96955.16
2023-03-01T05:59:52.142Z,96955.38
2023-03-01T06:02:19.964Z,96644.59
2023-03-01T06:04:50.866Z,96948.91
2023-03-01T06:07:21.849Z,96950.28
2023-03-01T06:09:51.109Z,96945.31
2023-03-01T06:12:22.121Z,96933.28
2023-03-01T06:14:50.143Z,96941.56
2023-03-01T06:17:22.276Z,96932.47
2023-03-01T06:19:50.103Z,96924.22
2023-03-01T06:22:18.163Z,96929.69
2023-03-01T06:24:48.078Z,96945.41
2023-03-01T06:27:21.522Z,96943.75
2023-03-01T06:29:52.847Z,96943.03
2023-03-01T06:32:20.752Z,96812.38
2023-03-01T06:34:49.650Z,96952.75
2023-03-01T06:37:18.428Z,96920.22
2023-03-01T06:39:47.986Z,96932.34
2023-03-01T06:42:17.616Z,96944.41
2023-03-01T06:44:47.167Z,96945.28
2023-03-01T06:47:15.304Z,96944.13
2023-03-01T06:49:45.685Z,96898.63
2023-03-01T06:52:17.252Z,96915.84
2023-03-01T06:54:50.601Z,96937.59
2023-03-01T06:57:25.406Z,96939.25
2023-03-01T06:59:54.019Z,96918.47
2023-03-01T07:02:23.157Z,96879.06
2023-03-01T07:04:51.338Z,96936.75
2023-03-01T07:07:20.534Z,96947.72
2023-03-01T07:09:49.492Z,96941.78
2023-03-01T07:12:19.552Z,96949.13
2023-03-01T07:14:50.591Z,96941.34
2023-03-01T07:17:19.896Z,96931.72
2023-03-01T07:19:50.135Z,96920.81
2023-03-01T07:22:18.006Z,96928.66
2023-03-01T07:24:48.075Z,96923.47
2023-03-01T07:27:16.147Z,96931.19
2023-03-01T07:29:50.109Z,96906.38
2023-03-01T07:32:23.936Z,96923.22
2023-03-01T07:34:56.369Z,96920.88
2023-03-01T07:37:24.943Z,96923.91
2023-03-01T07:39:59.062Z,96974.22
2023-03-01T07:42:31.238Z,96930.53
2023-03-01T07:45:01.707Z,96926.16
2023-03-01T07:47:32.410Z,96914.81
2023-03-01T07:50:02.226Z,96917.50
2023-03-01T07:52:30.790Z,96901.19
2023-03-01T07:55:04.310Z,96891.81
2023-03-01T07:57:32.768Z,96901.50
2023-03-01T08:00:07.852Z,96882.16
2023-03-01T08:02:36.443Z,96902.97
2023-03-01T08:05:07.494Z,96895.72
2023-03-01T08:07:35.688Z,96888.13
2023-03-01T08:10:04.021Z,96897.47
2023-03-01T08:12:32.028Z,96872.56
2023-03-01T08:15:03.317Z,96906.50
2023-03-01T08:17:32.355Z,96903.41
2023-03-01T08:20:02.105Z,96902.84
2023-03-01T08:22:35.068Z,96911.94
2023-03-01T08:25:03.046Z,96901.50
2023-03-01T08:27:33.503Z,96904.84
2023-03-01T08:30:03.800Z,96902.84
2023-03-01T08:32:38.599Z,96906.75
2023-03-01T08:35:08.093Z,96896.84
2023-03-01T08:37:35.918Z,96885.06
2023-03-01T08:40:08.313Z,96895.72
2023-03-01T08:42:36.574Z,96896.22
2023-03-01T08:45:07.511Z,96895.09
2023-03-01T08:47:39.964Z,96900.78
2023-03-01T08:50:08.852Z,96892.22
2023-03-01T08:52:38.603Z,96852.97
2023-03-01T08:55:07.608Z,96889.97
2023-03-01T08:57:35.703Z,96885.22
2023-03-01T09:00:09.631Z,96877.59
2023-03-01T09:02:40.113Z,96882.03
2023-03-01T09:05:08.942Z,96878.75
2023-03-01T09:07:36.847Z,96880.34
2023-03-01T09:10:06.164Z,96873.94
2023-03-01T09:12:34.120Z,96840.16
2023-03-01T09:15:02.353Z,96882.53
2023-03-01T09:17:32.834Z,96844.84
2023-03-01T09:20:02.766Z,96853.28
2023-03-01T09:22:31.603Z,96842.66
2023-03-01T09:25:00.325Z,96852.28
2023-03-01T09:27:29.755Z,96810.09
2023-03-01T09:29:58.291Z,96836.09
2023-03-01T09:32:28.208Z,96846.63
2023-03-01T09:35:05.754Z,96832.47
2023-03-01T09:37:34.907Z,96586.56
2023-03-01T09:40:05.424Z,96827.47
2023-03-01T09:42:34.971Z,96823.88
2023-03-01T09:45:07.094Z,96825.75
2023-03-01T09:47:36.754Z,96834.66
2023-03-01T09:50:10.841Z,96831.59
2023-03-01T09:52:42.059Z,96824.38
2023-03-01T09:55:15.785Z,96826.88
2023-03-01T09:57:48.710Z,96816.78
2023-03-01T10:00:26.711Z,96819.41
2023-03-01T10:03:01.624Z,96823.56
2023-03-01T10:05:53.632Z,96815.72
2023-03-01T10:08:32.476Z,96801.19
2023-03-01T10:11:09.768Z,96805.91
2023-03-01T10:13:47.410Z,96809.75
2023-03-01T10:16:21.958Z,96815.91
2023-03-01T10:18:58.462Z,96793.91
2023-03-01T10:21:30.843Z,96778.72
2023-03-01T10:24:07.452Z,96797.75
2023-03-01T10:26:45.348Z,96777.22
2023-03-01T10:29:17.580Z,96787.88
2023-03-01T10:31:47.977Z,96794.06
2023-03-01T10:34:21.577Z,96786.25
2023-03-01T10:36:57.368Z,96777.97
2023-03-01T10:39:27.276Z,96759.44
2023-03-01T10:42:01.716Z,96763.53
2023-03-01T10:44:50.921Z,96771.28
2023-03-01T10:47:25.770Z,96772.19
2023-03-01T10:49:57.744Z,96767.50
2023-03-01T10:52:41.060Z,96733.16
2023-03-01T10:55:27.339Z,96805.88
2023-03-01T10:58:10.758Z,96768.28
2023-03-01T11:00:49.491Z,96514.16
2023-03-01T11:03:21.962Z,96754.19
2023-03-01T11:06:02.490Z,96764.88
2023-03-01T11:08:39.864Z,96743.72
2023-03-01T11:11:21.902Z,96728.81
2023-03-01T11:14:00.091Z,96708.88
2023-03-01T11:16:39.327Z,96401.44
2023-03-01T11:19:22.096Z,96735.47
2023-03-01T11:21:57.339Z,96727.19
2023-03-01T11:24:32.830Z,96719.16
2023-03-01T11:27:07.717Z,96711.25
2023-03-01T11:29:48.450Z,96716.28
2023-03-01T11:32:23.253Z,96710.78
2023-03-01T11:34:55.134Z,96706.50
2023-03-01T11:37:31.498Z,96691.72
2023-03-01T11:40:08.470Z,96691.97
2023-03-01T11:42:52.788Z,96685.91
2023-03-01T11:45:22.275Z,96677.31
2023-03-01T11:48:09.240Z,96675.13
2023-03-01T11:50:45.605Z,96673.19
2023-03-01T11:53:27.631Z,96388.59
2023-03-01T11:56:12.968Z,96670.56
2023-03-01T11:59:05.408Z,96663.38
2023-03-01T12:01:42.866Z,96657.53
2023-03-01T12:04:56.939Z,96650.44
2023-03-01T12:07:29.033Z,96658.69
2023-03-01T12:10:10.114Z,96640.25
2023-03-01T12:12:51.832Z,96628.94
2023-03-01T12:15:41.773Z,96629.88
2023-03-01T12:18:32.090Z,96605.44
2023-03-01T12:21:07.973Z,96616.41
2023-03-01T12:24:02.391Z,96312.53
2023-03-01T12:26:33.447Z,96590.16
2023-03-01T12:29:23.343Z,96602.66
2023-03-01T12:32:18.299Z,96602.84
2023-03-01T12:35:12.134Z,96509.50
2023-03-01T12:37:49.450Z,96584.06
2023-03-01T12:40:55.138Z,96547.00
2023-03-01T12:43:38.097Z,96622.03
2023-03-01T12:46:15.606Z,96542.44
2023-03-01T12:48:50.525Z,96578.41
2023-03-01T12:51:20.990Z,96574.28
2023-03-01T12:53:50.263Z,96572.34
2023-03-01T12:56:20.954Z,96350.47
2023-03-01T12:58:58.699Z,96565.69
2023-03-01T13:01:37.167Z,96547.09
2023-03-01T13:04:38.326Z,96555.75
2023-03-01T13:07:19.503Z,96547.06
2023-03-01T13:09:52.704Z,96547.63
2023-03-01T13:12:48.312Z,96543.72
2023-03-01T13:15:30.655Z,96532.06
2023-03-01T13:18:01.516Z,96498.47
2023-03-01T13:20:36.895Z,96522.31
2023-03-01T13:23:15.213Z,96534.59
2023-03-01T13:26:06.025Z,96526.53
2023-03-01T13:28:58.416Z,96516.06
2023-03-01T13:31:58.140Z,96520.41
2023-03-01T13:34:58.784Z,96530.25
2023-03-01T13:37:32.081Z,96513.25
2023-03-01T13:40:06.846Z,96479.09
2023-03-01T13:42:40.865Z,96518.34
2023-03-01T13:45:32.386Z,96531.03
2023-03-01T13:48:06.394Z,96527.44
2023-03-01T13:50:50.513Z,96532.81
2023-03-01T13:53:24.868Z,96524.69
2023-03-01T13:55:55.665Z,96519.94
2023-03-01T13:58:37.862Z,96517.47
2023-03-01T14:01:22.196Z,96515.59
2023-03-01T14:03:50.970Z,96532.31
2023-03-01T14:06:23.080Z,96226.13
2023-03-01T14:09:05.522Z,96530.44
2023-03-01T14:11:57.720Z,96523.69
2023-03-01T14:14:44.997Z,96516.06
2023-03-01T14:17:31.157Z,96505.72
2023-03-01T14:20:01.201Z,96495.38
2023-03-01T14:22:31.887Z,96518.34
2023-03-01T14:25:09.818Z,96509.75
2023-03-01T14:27:42.917Z,96519.34
2023-03-01T14:30:22.896Z,96510.41
2023-03-01T14:32:55.964Z,96519.94
2023-03-01T14:35:25.589Z,96521.28
2023-03-01T14:37:55.749Z,96526.78
2023-03-01T14:40:35.232Z,96519.19
2023-03-01T14:43:05.122Z,96528.00
2023-03-01T14:45:34.240Z,96541.38
2023-03-01T14:48:04.433Z,96537.25
2023-03-01T14:50:35.696Z,96534.28
2023-03-01T14:53:05.106Z,96535.09
2023-03-01T14:55:39.742Z,96543.06
2023-03-01T14:58:15.125Z,96483.38
2023-03-01T15:00:49.328Z,96552.31
2023-03-01T15:03:23.861Z,96538.38
2023-03-01T15:05:55.836Z,96544.91
2023-03-01T15:08:27.960Z,96544.09
2023-03-01T15:11:03.954Z,96535.41
2023-03-01T15:13:33.867Z,96547.31
2023-03-01T15:16:12.405Z,96545.69
2023-03-01T15:18:46.278Z,96544.31
2023-03-01T15:21:21.743Z,96550.34
2023-03-01T15:23:57.185Z,96548.53
2023-03-01T15:26:32.397Z,96540.06
2023-03-01T15:29:01.800Z,96509.56
2023-03-01T15:31:30.945Z,96539.22
2023-03-01T15:34:24.482Z,96460.09
2023-03-01T15:36:57.064Z,96495.06
2023-03-01T15:39:44.169Z,96524.06
2023-03-01T15:42:14.820Z,96538.56
2023-03-01T15:44:46.858Z,96474.91
2023-03-01T15:47:32.188Z,96504.16
2023-03-01T15:50:02.160Z,96538.44
2023-03-01T15:52:32.244Z,96542.28
2023-03-01T15:55:03.177Z,96503.44
2023-03-01T15:57:34.159Z,96546.25
2023-03-01T16:00:02.300Z,96541.16
2023-03-01T16:02:33.578Z,96534.53
2023-03-01T16:05:04.402Z,96520.53
2023-03-01T16:07:37.644Z,96520.16
2023-03-01T16:10:06.406Z,96439.13
2023-03-01T16:12:37.734Z,96525.16
2023-03-01T16:15:10.738Z,96463.69
2023-03-01T16:17:42.720Z,96515.72
2023-03-01T16:20:19.621Z,96510.38
2023-03-01T16:22:51.072Z,96522.59
2023-03-01T16:25:21.983Z,96512.53
2023-03-01T16:27:54.743Z,96512.69
2023-03-01T16:30:24.682Z,96478.66
2023-03-01T16:32:55.213Z,96520.31
2023-03-01T16:35:26.210Z,96519.56
2023-03-01T16:37:55.020Z,96528.00
2023-03-01T16:40:25.611Z,96528.03
2023-03-01T16:43:02.809Z,96537.88
2023-03-01T16:45:36.190Z,96532.22
2023-03-01T16:48:04.438Z,96261.84
2023-03-01T16:50:34.895Z,96523.47
2023-03-01T16:53:03.464Z,96534.63
2023-03-01T16:55:32.895Z,96525.22
2023-03-01T16:58:02.408Z,96533.41
2023-03-01T17:00:32.751Z,96532.59
2023-03-01T17:03:00.649Z,96521.56
2023-03-01T17:05:28.891Z,96345.19
2023-03-01T17:08:00.795Z,96537.75
2023-03-01T17:10:39.189Z,96526.25
2023-03-01T17:13:08.377Z,96547.16
2023-03-01T17:15:53.936Z,96578.38
2023-03-01T17:18:23.039Z,96592.75
2023-03-01T17:20:50.883Z,96566.59
2023-03-01T17:23:18.702Z,96573.13
2023-03-01T17:25:51.976Z,96567.59
2023-03-01T17:28:21.297Z,96576.06
2023-03-01T17:30:51.739Z,96572.66
2023-03-01T17:33:22.902Z,96577.50
2023-03-01T17:35:53.717Z,96583.28
2023-03-01T17:38:21.762Z,96583.41
2023-03-01T17:40:49.607Z,96580.66
2023-03-01T17:43:18.652Z,96587.66
2023-03-01T17:45:50.732Z,96569.50
2023-03-01T17:48:18.986Z,96535.91
2023-03-01T17:50:47.101Z,96589.78
2023-03-01T17:53:20.309Z,96586.38
2023-03-01T17:55:54.340Z,96590.63
2023-03-01T17:58:29.268Z,96590.84
2023-03-01T18:01:08.497Z,96591.88
2023-03-01T18:03:39.507Z,96503.75
2023-03-01T18:06:13.342Z,96600.88
2023-03-01T18:08:41.272Z,96588.41
2023-03-01T18:11:11.682Z,96590.50
2023-03-01T18:13:40.706Z,96591.28
2023-03-01T18:16:15.449Z,96589.13
2023-03-01T18:18:46.370Z,96592.66
2023-03-01T18:21:14.864Z,96594.50
2023-03-01T18:23:50.541Z,96594.84
2023-03-01T18:26:22.101Z,96584.09
2023-03-01T18:28:53.790Z,96596.88
2023-03-01T18:31:27.008Z,96587.06
2023-03-01T18:33:57.033Z,96581.13
2023-03-01T18:36:26.947Z,96589.47
2023-03-01T18:38:56.317Z,96585.44
2023-03-01T18:41:26.494Z,96581.31
2023-03-01T18:43:57.487Z,96582.94
2023-03-01T18:46:30.466Z,96584.75
2023-03-01T18:48:58.596Z,96586.16
2023-03-01T18:51:32.480Z,96567.44
2023-03-01T18:54:03.402Z,96577.72
2023-03-01T18:56:32.745Z,96577.59
2023-03-01T18:59:02.350Z,96560.56
2023-03-01T19:01:37.564Z,96570.28
2023-03-01T19:04:13.941Z,96499.41
2023-03-01T19:06:41.765Z,96564.13
2023-03-01T19:09:11.480Z,96561.81
2023-03-01T19:11:42.268Z,96550.06
2023-03-01T19:14:11.210Z,96549.41
2023-03-01T19:16:45.264Z,96566.28
2023-03-01T19:19:16.266Z,96559.91
2023-03-01T19:21:56.014Z,96565.72
2023-03-01T19:24:38.739Z,96558.06
2023-03-01T19:27:10.221Z,96565.72
2023-03-01T19:29:41.168Z,96546.66
2023-03-01T19:32:10.474Z,96554.44
2023-03-01T19:34:57.231Z,96558.41
2023-03-01T19:37:28.025Z,96554.53
2023-03-01T19:39:55.755Z,96548.94
2023-03-01T19:42:27.337Z,96547.91
2023-03-01T19:44:55.205Z,96559.78
2023-03-01T19:47:26.597Z,96548.81
2023-03-01T19:49:56.840Z,96551.78
2023-03-01T19:52:24.682Z,96526.53
2023-03-01T19:54:55.827Z,96558.03
2023-03-01T19:57:32.088Z,96556.44
2023-03-01T20:00:02.559Z,96561.66
2023-03-01T20:02:34.074Z,96541.19
2023-03-01T20:05:04.994Z,96556.94
2023-03-01T20:07:35.279Z,96563.75
2023-03-01T20:10:03.383Z,96562.72
2023-03-01T20:12:33.977Z,96559.09
2023-03-01T20:15:01.909Z,96567.25
2023-03-01T20:17:31.089Z,96569.59
2023-03-01T20:19:59.337Z,96566.00
2023-03-01T20:22:27.525Z,96527.50
2023-03-01T20:24:55.369Z,96527.94
2023-03-01T20:27:23.170Z,96558.03
2023-03-01T20:29:50.937Z,96529.69
2023-03-01T20:32:28.309Z,96566.22
2023-03-01T20:34:57.560Z,96567.84
2023-03-01T20:37:26.611Z,96567.41
2023-03-01T20:39:56.013Z,96563.13
2023-03-01T20:42:24.669Z,96567.84
2023-03-01T20:44:58.947Z,96564.41
2023-03-01T20:47:32.151Z,96556.94
2023-03-01T20:50:02.732Z,96564.81
2023-03-01T20:52:47.433Z,96548.59
2023-03-01T20:55:15.915Z,96551.09
2023-03-01T20:57:44.992Z,96548.00
2023-03-01T21:00:15.044Z,96549.09
2023-03-01T21:02:46.876Z,96543.19
2023-03-01T21:05:21.235Z,96542.06
2023-03-01T21:07:49.231Z,96549.09
2023-03-01T21:10:20.229Z,96545.59
2023-03-01T21:12:48.124Z,96546.53
2023-03-01T21:15:28.361Z,96552.88
2023-03-01T21:17:57.026Z,96524.47
2023-03-01T21:20:30.687Z,96539.56
2023-03-01T21:23:02.852Z,96542.47
2023-03-01T21:25:34.851Z,96541.75
2023-03-01T21:28:05.141Z,96537.66
2023-03-01T21:30:33.004Z,96539.81
2023-03-01T21:33:06.770Z,96544.50
2023-03-01T21:35:36.006Z,96545.53
2023-03-01T21:38:06.905Z,96535.91
2023-03-01T21:40:34.823Z,96534.19
2023-03-01T21:43:02.727Z,96472.19
2023-03-01T21:45:30.588Z,96518.50
2023-03-01T21:48:07.134Z,96527.44
2023-03-01T21:50:39.263Z,96527.53
2023-03-01T21:53:07.163Z,96514.88
2023-03-01T21:55:37.580Z,96523.34
2023-03-01T21:58:12.250Z,96521.06
2023-03-01T22:00:40.370Z,96515.03
2023-03-01T22:03:08.219Z,96441.41
2023-03-01T22:05:39.488Z,96485.34
2023-03-01T22:08:08.348Z,96503.19
2023-03-01T22:10:43.579Z,96498.84
2023-03-01T22:13:14.191Z,96507.72
2023-03-01T22:15:43.290Z,96507.97
2023-03-01T22:18:14.979Z,96499.81
2023-03-01T22:20:44.429Z,96515.59
2023-03-01T22:23:12.255Z,96509.97
2023-03-01T22:25:43.414Z,96281.06
2023-03-01T22:28:11.248Z,96488.53
2023-03-01T22:30:39.114Z,96518.66
2023-03-01T22:33:16.383Z,96525.69
2023-03-01T22:35:51.628Z,96515.00
2023-03-01T22:38:19.546Z,96412.66
2023-03-01T22:40:59.748Z,96514.81
2023-03-01T22:43:29.383Z,96511.34
2023-03-01T22:45:57.595Z,96522.06
2023-03-01T22:48:25.871Z,96481.31
2023-03-01T22:50:55.158Z,96517.44
2023-03-01T22:53:23.024Z,96517.22
2023-03-01T22:55:50.887Z,96529.97
2023-03-01T22:58:24.217Z,96506.34
2023-03-01T23:00:53.824Z,96519.03
2023-03-01T23:03:21.773Z,96498.94
2023-03-01T23:05:49.832Z,96506.47
2023-03-01T23:08:19.185Z,96507.06
2023-03-01T23:10:47.304Z,96505.22
2023-03-01T23:13:17.518Z,96500.22
2023-03-01T23:15:46.617Z,96474.97
2023-03-01T23:18:14.518Z,96505.63
2023-03-01T23:20:45.469Z,96466.78
2023-03-01T23:23:13.512Z,96504.72
2023-03-01T23:25:54.008Z,96500.81
2023-03-01T23:28:21.944Z,96502.63
2023-03-01T23:30:57.497Z,96505.34
2023-03-01T23:33:25.979Z,96502.81
2023-03-01T23:35:53.955Z,96506.34
2023-03-01T23:38:21.887Z,96243.69
2023-03-01T23:40:51.093Z,96499.41
2023-03-01T23:43:18.990Z,96497.50
2023-03-01T23:45:48.513Z,96492.13
2023-03-01T23:48:18.283Z,96483.63
2023-03-01T23:50:46.212Z,96498.66
2023-03-01T23:53:15.503Z,96490.81
2023-03-01T23:55:50.395Z,96458.25
2023-03-01T23:58:21.419Z,96496.63
